sensor_id;sensor_type;location;lat;lon;timestamp;P1;P2;P0
74430;PMS7003;62863;52.062;23.764;2024-02-21T00:04:26;25.2;20.2;13.6
74430;PMS7003;62863;52.062;23.764;2024-02-21T00:09:27;24.6;20.6;14.2
74430;PMS7003;62863;52.062;23.764;2024-02-21T00:14:42;24.2;19.4;13.6
74430;PMS7003;62863;52.062;23.764;2024-02-21T00:20:00;21.6;19.8;14.2
74430;PMS7003;62863;52.062;23.764;2024-02-21T00:24:48;25.2;20.2;14.6
74430;PMS7003;62863;52.062;23.764;2024-02-21T00:29:58;26.5;21.3;15
74430;PMS7003;62863;52.062;23.764;2024-02-21T00:34:58;26.6;21.8;14.2
74430;PMS7003;62863;52.062;23.764;2024-02-21T00:39:18;23.6;20.6;13.6
74430;PMS7003;62863;52.062;23.764;2024-02-21T00:44:58;27.4;24.2;16.2
74430;PMS7003;62863;52.062;23.764;2024-02-21T00:49:50;26;23;15.8
74430;PMS7003;62863;52.062;23.764;2024-02-21T00:54:48;28;21;14.6
74430;PMS7003;62863;52.062;23.764;2024-02-21T00:59:34;24.2;21.4;14.4
74430;PMS7003;62863;52.062;23.764;2024-02-21T01:04:58;22;21.8;14.2
74430;PMS7003;62863;52.062;23.764;2024-02-21T01:09:48;23.2;20.2;13.2
74430;PMS7003;62863;52.062;23.764;2024-02-21T01:14:59;20.4;18.6;13
74430;PMS7003;62863;52.062;23.764;2024-02-21T01:19:18;23;17.8;12.8
74430;PMS7003;62863;52.062;23.764;2024-02-21T01:24:47;19.4;16.4;11.6
74430;PMS7003;62863;52.062;23.764;2024-02-21T01:29:38;22.5;19.3;14.5
74430;PMS7003;62863;52.062;23.764;2024-02-21T01:34:36;22.4;19.4;13.4
74430;PMS7003;62863;52.062;23.764;2024-02-21T01:39:42;33;27.8;18.2
74430;PMS7003;62863;52.062;23.764;2024-02-21T01:44:28;23.8;21;16.4
74430;PMS7003;62863;52.062;23.764;2024-02-21T01:49:39;22.8;20.2;14
74430;PMS7003;62863;52.062;23.764;2024-02-21T01:54:59;20.6;17.8;11.2
74430;PMS7003;62863;52.062;23.764;2024-02-21T01:59:28;18.6;15;10.2
74430;PMS7003;62863;52.062;23.764;2024-02-21T02:04:58;15.4;12.6;9.8
74430;PMS7003;62863;52.062;23.764;2024-02-21T02:09:59;12.2;11.2;8.6
74430;PMS7003;62863;52.062;23.764;2024-02-21T02:14:34;12.4;10.8;8
74430;PMS7003;62863;52.062;23.764;2024-02-21T02:19:58;10.8;10;7.2
74430;PMS7003;62863;52.062;23.764;2024-02-21T02:24:58;12.6;10.4;8.2
74430;PMS7003;62863;52.062;23.764;2024-02-21T02:29:49;11.3;9.3;7.5
74430;PMS7003;62863;52.062;23.764;2024-02-21T02:34:27;11.4;10.4;7.4
74430;PMS7003;62863;52.062;23.764;2024-02-21T02:39:45;13.2;11.2;9
74430;PMS7003;62863;52.062;23.764;2024-02-21T02:44:20;13.8;12.4;8.4
74430;PMS7003;62863;52.062;23.764;2024-02-21T02:49:59;13.2;12.2;8.4
74430;PMS7003;62863;52.062;23.764;2024-02-21T02:54:19;12.2;10.6;7
74430;PMS7003;62863;52.062;23.764;2024-02-21T03:00:01;13;11.6;8.4
74430;PMS7003;62863;52.062;23.764;2024-02-21T03:04:39;14.8;11.6;8.8
74430;PMS7003;62863;52.062;23.764;2024-02-21T03:09:37;11;9.2;6.4
74430;PMS7003;62863;52.062;23.764;2024-02-21T03:14:49;9.8;9;6.2
74430;PMS7003;62863;52.062;23.764;2024-02-21T03:19:41;11.6;9.2;6.4
74430;PMS7003;62863;52.062;23.764;2024-02-21T03:24:19;9;7.2;5.6
74430;PMS7003;62863;52.062;23.764;2024-02-21T03:29:19;8;6.8;4.8
74430;PMS7003;62863;52.062;23.764;2024-02-21T03:34:49;7.4;5.6;4.4
74430;PMS7003;62863;52.062;23.764;2024-02-21T03:39:19;11.2;10;7
74430;PMS7003;62863;52.062;23.764;2024-02-21T03:44:41;9.6;9.2;6
74430;PMS7003;62863;52.062;23.764;2024-02-21T03:49:19;10.6;7.8;5.6
74430;PMS7003;62863;52.062;23.764;2024-02-21T03:54:59;9.4;8.2;5.2
74430;PMS7003;62863;52.062;23.764;2024-02-21T03:59:37;7.6;6.4;4.4
74430;PMS7003;62863;52.062;23.764;2024-02-21T04:04:21;7;6.2;5
74430;PMS7003;62863;52.062;23.764;2024-02-21T04:09:27;8.8;7;5.6
74430;PMS7003;62863;52.062;23.764;2024-02-21T04:14:45;9.4;8.4;5.8
74430;PMS7003;62863;52.062;23.764;2024-02-21T04:20:02;10.2;9;6.2
74430;PMS7003;62863;52.062;23.764;2024-02-21T04:24:41;8.8;7.2;5.6
74430;PMS7003;62863;52.062;23.764;2024-02-21T04:29:39;8.3;6.3;5
74430;PMS7003;62863;52.062;23.764;2024-02-21T04:34:59;11.8;10;7.6
74430;PMS7003;62863;52.062;23.764;2024-02-21T04:39:59;10;8.4;5.8
74430;PMS7003;62863;52.062;23.764;2024-02-21T04:44:49;7.8;6.8;5.6
74430;PMS7003;62863;52.062;23.764;2024-02-21T04:49:19;11.8;9.8;7
74430;PMS7003;62863;52.062;23.764;2024-02-21T04:54:19;17;13.2;9.4
74430;PMS7003;62863;52.062;23.764;2024-02-21T04:59:19;12;10.8;7.8
74430;PMS7003;62863;52.062;23.764;2024-02-21T05:04:45;13.4;11.2;8.6
74430;PMS7003;62863;52.062;23.764;2024-02-21T05:09:45;18.8;14.8;10.4
74430;PMS7003;62863;52.062;23.764;2024-02-21T05:14:33;12.8;11.2;8
74430;PMS7003;62863;52.062;23.764;2024-02-21T05:19:43;8.6;7;5.4
74430;PMS7003;62863;52.062;23.764;2024-02-21T05:24:17;5.2;5.2;3.4
74430;PMS7003;62863;52.062;23.764;2024-02-21T05:29:35;5.2;5.2;3.4
74430;PMS7003;62863;52.062;23.764;2024-02-21T05:34:48;4.5;4.3;2.8
74430;PMS7003;62863;52.062;23.764;2024-02-21T05:39:19;11.4;9.2;6.8
74430;PMS7003;62863;52.062;23.764;2024-02-21T05:44:35;15;13.2;9.6
74430;PMS7003;62863;52.062;23.764;2024-02-21T05:49:19;15.8;14;9.6
74430;PMS7003;62863;52.062;23.764;2024-02-21T05:54:37;24.6;19.4;13.4
74430;PMS7003;62863;52.062;23.764;2024-02-21T05:59:33;16.8;13.4;9.6
74430;PMS7003;62863;52.062;23.764;2024-02-21T06:04:17;27;24.6;17.8
74430;PMS7003;62863;52.062;23.764;2024-02-21T06:09:27;37;31.6;21.6
74430;PMS7003;62863;52.062;23.764;2024-02-21T06:14:35;39.4;34.2;23.8
74430;PMS7003;62863;52.062;23.764;2024-02-21T06:19:29;54.2;44;29
74430;PMS7003;62863;52.062;23.764;2024-02-21T06:24:39;65.8;53.6;33.4
74430;PMS7003;62863;52.062;23.764;2024-02-21T06:29:17;69.3;53.3;32.5
74430;PMS7003;62863;52.062;23.764;2024-02-21T06:34:17;41.5;33;22.3
74430;PMS7003;62863;52.062;23.764;2024-02-21T06:39:25;21.6;18.4;12.8
74430;PMS7003;62863;52.062;23.764;2024-02-21T06:44:17;33.4;27;19
74430;PMS7003;62863;52.062;23.764;2024-02-21T06:49:25;37.2;33.4;20.6
74430;PMS7003;62863;52.062;23.764;2024-02-21T06:54:27;25.2;19.8;13.6
74430;PMS7003;62863;52.062;23.764;2024-02-21T06:59:33;27.4;21.6;15.6
74430;PMS7003;62863;52.062;23.764;2024-02-21T07:04:57;26.4;24.6;17.4
74430;PMS7003;62863;52.062;23.764;2024-02-21T07:09:47;36;31.6;21.6
74430;PMS7003;62863;52.062;23.764;2024-02-21T07:14:45;38.8;33.5;23.5
74430;PMS7003;62863;52.062;23.764;2024-02-21T07:19:33;39.6;35;24.4
74430;PMS7003;62863;52.062;23.764;2024-02-21T07:24:27;32.2;27.4;19.6
74430;PMS7003;62863;52.062;23.764;2024-02-21T07:29:49;36.8;33;23
74430;PMS7003;62863;52.062;23.764;2024-02-21T07:34:35;24.6;22.6;16.2
74430;PMS7003;62863;52.062;23.764;2024-02-21T07:39:17;35.8;29.4;20
74430;PMS7003;62863;52.062;23.764;2024-02-21T07:44:47;35.4;30.6;20
74430;PMS7003;62863;52.062;23.764;2024-02-21T07:49:59;32.8;28.3;20
74430;PMS7003;62863;52.062;23.764;2024-02-21T07:54:29;21.2;18;12.4
74430;PMS7003;62863;52.062;23.764;2024-02-21T07:59:49;21.4;20;12.8
74430;PMS7003;62863;52.062;23.764;2024-02-21T08:04:17;21.4;17;11.8
74430;PMS7003;62863;52.062;23.764;2024-02-21T08:09:25;24.6;21.8;15.2
74430;PMS7003;62863;52.062;23.764;2024-02-21T08:14:25;21.4;19.2;13.2
74430;PMS7003;62863;52.062;23.764;2024-02-21T08:19:27;33.3;26.5;17
74430;PMS7003;62863;52.062;23.764;2024-02-21T08:24:29;27;24.5;15
74430;PMS7003;62863;52.062;23.764;2024-02-21T08:29:59;31.8;28.2;18.2
74430;PMS7003;62863;52.062;23.764;2024-02-21T08:34:47;25.2;19.2;13.2
74430;PMS7003;62863;52.062;23.764;2024-02-21T08:39:59;26.2;21.2;15.6
74430;PMS7003;62863;52.062;23.764;2024-02-21T08:44:58;25.8;22.3;14.8
74430;PMS7003;62863;52.062;23.764;2024-02-21T08:49:47;24.8;20.8;15.4
74430;PMS7003;62863;52.062;23.764;2024-02-21T08:54:57;15.3;13.3;9.8
74430;PMS7003;62863;52.062;23.764;2024-02-21T08:59:59;17.8;15.6;10.8
74430;PMS7003;62863;52.062;23.764;2024-02-21T09:04:49;20.4;17.8;13.4
74430;PMS7003;62863;52.062;23.764;2024-02-21T09:09:21;18.6;15.4;9.8
74430;PMS7003;62863;52.062;23.764;2024-02-21T09:14:43;21;19.2;14
74430;PMS7003;62863;52.062;23.764;2024-02-21T09:19:21;14.6;13.4;9.6
74430;PMS7003;62863;52.062;23.764;2024-02-21T09:24:27;20.8;17.8;13.3
74430;PMS7003;62863;52.062;23.764;2024-02-21T09:29:39;17.8;15.8;12.2
74430;PMS7003;62863;52.062;23.764;2024-02-21T09:34:59;15;13.6;10.2
74430;PMS7003;62863;52.062;23.764;2024-02-21T09:39:37;14.8;13.4;9.4
74430;PMS7003;62863;52.062;23.764;2024-02-21T09:44:17;31.8;26.6;18
74430;PMS7003;62863;52.062;23.764;2024-02-21T09:49:19;17.2;14.4;10
74430;PMS7003;62863;52.062;23.764;2024-02-21T09:54:33;16;15.2;10.6
74430;PMS7003;62863;52.062;23.764;2024-02-21T09:59:25;13;11;8.8
74430;PMS7003;62863;52.062;23.764;2024-02-21T10:04:17;27.6;23.8;16.6
74430;PMS7003;62863;52.062;23.764;2024-02-21T10:09:47;18.4;15.4;9.6
74430;PMS7003;62863;52.062;23.764;2024-02-21T10:14:25;18.2;15;10.2
74430;PMS7003;62863;52.062;23.764;2024-02-21T10:20:06;13;12.5;8.5
74430;PMS7003;62863;52.062;23.764;2024-02-21T10:25:06;10.6;9.2;5.4
74430;PMS7003;62863;52.062;23.764;2024-02-21T10:29:57;21.2;17.4;12.6
74430;PMS7003;62863;52.062;23.764;2024-02-21T10:34:37;18.8;16.8;11
74430;PMS7003;62863;52.062;23.764;2024-02-21T10:39:49;14.4;11.8;9.2
74430;PMS7003;62863;52.062;23.764;2024-02-21T10:44:19;11.6;10.4;7.6
74430;PMS7003;62863;52.062;23.764;2024-02-21T10:49:38;12.8;10.4;8.4
74430;PMS7003;62863;52.062;23.764;2024-02-21T10:54:45;8.3;8.3;6.3
74430;PMS7003;62863;52.062;23.764;2024-02-21T10:59:29;23.6;18.8;13.6
74430;PMS7003;62863;52.062;23.764;2024-02-21T11:04:31;10.6;9;7.4
74430;PMS7003;62863;52.062;23.764;2024-02-21T11:09:50;14.4;11.4;8.2
74430;PMS7003;62863;52.062;23.764;2024-02-21T11:14:49;14.8;14;10
74430;PMS7003;62863;52.062;23.764;2024-02-21T11:19:49;15.4;13.2;10.4
74430;PMS7003;62863;52.062;23.764;2024-02-21T11:24:27;18.4;14.4;11
74430;PMS7003;62863;52.062;23.764;2024-02-21T11:29:39;32.8;27.6;19.6
74430;PMS7003;62863;52.062;23.764;2024-02-21T11:34:39;40;34.2;22.8
74430;PMS7003;62863;52.062;23.764;2024-02-21T11:39:59;14.6;13.6;9.6
74430;PMS7003;62863;52.062;23.764;2024-02-21T11:44:41;23.8;20.6;14
74430;PMS7003;62863;52.062;23.764;2024-02-21T11:50:01;11.6;9.2;7
74430;PMS7003;62863;52.062;23.764;2024-02-21T11:54:59;9.3;8.3;6.3
74430;PMS7003;62863;52.062;23.764;2024-02-21T11:59:59;12;10.6;7.4
74430;PMS7003;62863;52.062;23.764;2024-02-21T12:05:01;19.4;14.8;10.4
74430;PMS7003;62863;52.062;23.764;2024-02-21T12:09:19;11.4;10.4;8
74430;PMS7003;62863;52.062;23.764;2024-02-21T12:15:03;12.2;11.4;8.8
74430;PMS7003;62863;52.062;23.764;2024-02-21T12:19:41;17.2;14.4;10.8
74430;PMS7003;62863;52.062;23.764;2024-02-21T12:24:21;13.2;10.6;8
74430;PMS7003;62863;52.062;23.764;2024-02-21T12:29:59;8.3;7.3;6
74430;PMS7003;62863;52.062;23.764;2024-02-21T12:34:47;9.6;9.2;6.8
74430;PMS7003;62863;52.062;23.764;2024-02-21T12:39:37;10.6;8.6;7
74430;PMS7003;62863;52.062;23.764;2024-02-21T12:44:59;11.6;8.8;6.2
74430;PMS7003;62863;52.062;23.764;2024-02-21T12:49:59;15.2;12.2;8.2
74430;PMS7003;62863;52.062;23.764;2024-02-21T12:54:49;13.2;10;7
74430;PMS7003;62863;52.062;23.764;2024-02-21T12:59:19;11.3;9.8;6.8
74430;PMS7003;62863;52.062;23.764;2024-02-21T13:04:29;13;9.6;7
74430;PMS7003;62863;52.062;23.764;2024-02-21T13:09:27;11.6;10.6;7
74430;PMS7003;62863;52.062;23.764;2024-02-21T13:14:29;11.8;10;6.8
74430;PMS7003;62863;52.062;23.764;2024-02-21T13:19:19;14.6;10.2;8
74430;PMS7003;62863;52.062;23.764;2024-02-21T13:24:27;12.3;10;6.7
74430;PMS7003;62863;52.062;23.764;2024-02-21T13:29:45;15;13.4;9
74430;PMS7003;62863;52.062;23.764;2024-02-21T13:34:35;14.8;12;8.5
74430;PMS7003;62863;52.062;23.764;2024-02-21T13:39:59;13;12.3;9.7
74430;PMS7003;62863;52.062;23.764;2024-02-21T13:44:29;16.4;15.2;9.6
74430;PMS7003;62863;52.062;23.764;2024-02-21T13:49:29;16.6;13.8;10.4
74430;PMS7003;62863;52.062;23.764;2024-02-21T13:54:41;18.8;16.6;11.8
74430;PMS7003;62863;52.062;23.764;2024-02-21T13:59:45;35.2;30.8;20.4
74430;PMS7003;62863;52.062;23.764;2024-02-21T14:04:41;25.4;22.4;15.2
74430;PMS7003;62863;52.062;23.764;2024-02-21T14:09:27;24;19.5;13.5
74430;PMS7003;62863;52.062;23.764;2024-02-21T14:14:39;18.8;15.8;11.2
74430;PMS7003;62863;52.062;23.764;2024-02-21T14:19:49;16;14.6;9.8
74430;PMS7003;62863;52.062;23.764;2024-02-21T14:24:31;17.8;13;9.2
74430;PMS7003;62863;52.062;23.764;2024-02-21T14:29:31;17.2;13.4;8.4
74430;PMS7003;62863;52.062;23.764;2024-02-21T14:34:21;17.8;14.8;10.3
74430;PMS7003;62863;52.062;23.764;2024-02-21T14:39:35;22.8;19;12.4
74430;PMS7003;62863;52.062;23.764;2024-02-21T14:44:19;19.5;16.3;12
74430;PMS7003;62863;52.062;23.764;2024-02-21T14:49:39;16.6;13.8;10.6
74430;PMS7003;62863;52.062;23.764;2024-02-21T14:54:45;18.2;14.6;10.2
74430;PMS7003;62863;52.062;23.764;2024-02-21T14:59:31;19.3;16;11.7
74430;PMS7003;62863;52.062;23.764;2024-02-21T15:05:01;19.2;16.8;10.8
74430;PMS7003;62863;52.062;23.764;2024-02-21T15:09:41;17.6;15;11
74430;PMS7003;62863;52.062;23.764;2024-02-21T15:14:59;18;16.3;10.8
74430;PMS7003;62863;52.062;23.764;2024-02-21T15:19:39;16;15.3;10.3
74430;PMS7003;62863;52.062;23.764;2024-02-21T15:24:47;18;12.6;8.8
74430;PMS7003;62863;52.062;23.764;2024-02-21T15:29:59;15.3;13;10.3
74430;PMS7003;62863;52.062;23.764;2024-02-21T15:34:59;17.8;13.5;10
74430;PMS7003;62863;52.062;23.764;2024-02-21T15:39:49;16.8;15.2;11.2
74430;PMS7003;62863;52.062;23.764;2024-02-21T15:44:41;18.4;15;10.8
74430;PMS7003;62863;52.062;23.764;2024-02-21T15:49:29;18;15.5;10.5
74430;PMS7003;62863;52.062;23.764;2024-02-21T15:54:37;23;20;14.3
74430;PMS7003;62863;52.062;23.764;2024-02-21T15:59:59;27.6;24.2;17.4
74430;PMS7003;62863;52.062;23.764;2024-02-21T16:04:40;23.6;20.2;13.8
74430;PMS7003;62863;52.062;23.764;2024-02-21T16:09:59;24;19;15
74430;PMS7003;62863;52.062;23.764;2024-02-21T16:14:27;17;16.3;11.8
74430;PMS7003;62863;52.062;23.764;2024-02-21T16:19:37;21.4;18.2;12.2
74430;PMS7003;62863;52.062;23.764;2024-02-21T16:24:27;24.6;21;13.8
74430;PMS7003;62863;52.062;23.764;2024-02-21T16:29:35;26.8;20.6;15.2
74430;PMS7003;62863;52.062;23.764;2024-02-21T16:34:19;29;25.2;17.6
74430;PMS7003;62863;52.062;23.764;2024-02-21T16:40:01;31.6;25.6;17.6
74430;PMS7003;62863;52.062;23.764;2024-02-21T16:45:01;29.4;25;17.2
74430;PMS7003;62863;52.062;23.764;2024-02-21T16:50:01;21.8;20;13.8
74430;PMS7003;62863;52.062;23.764;2024-02-21T16:55:01;26.5;22;14.3
74430;PMS7003;62863;52.062;23.764;2024-02-21T16:59:35;23;20.8;14.2
74430;PMS7003;62863;52.062;23.764;2024-02-21T17:05:01;28.8;24;17
74430;PMS7003;62863;52.062;23.764;2024-02-21T17:10:01;31.8;27.2;19.2
74430;PMS7003;62863;52.062;23.764;2024-02-21T17:14:25;30.3;25.5;18.3
74430;PMS7003;62863;52.062;23.764;2024-02-21T17:19:35;24.4;21.8;15
74430;PMS7003;62863;52.062;23.764;2024-02-21T17:24:21;20.4;18.6;13
74430;PMS7003;62863;52.062;23.764;2024-02-21T17:29:37;20;18;12.8
74430;PMS7003;62863;52.062;23.764;2024-02-21T17:35:01;25.4;20.2;13
74430;PMS7003;62863;52.062;23.764;2024-02-21T17:39:19;22.8;17.8;12.4
74430;PMS7003;62863;52.062;23.764;2024-02-21T17:45:01;23;19.5;14.3
74430;PMS7003;62863;52.062;23.764;2024-02-21T17:49:27;19.2;17.2;11.8
74430;PMS7003;62863;52.062;23.764;2024-02-21T17:54:27;21.4;17.2;12.4
74430;PMS7003;62863;52.062;23.764;2024-02-21T17:59:33;24.4;20.4;14.2
74430;PMS7003;62863;52.062;23.764;2024-02-21T18:04:19;21.6;18.8;13.2
74430;PMS7003;62863;52.062;23.764;2024-02-21T18:09:27;24.8;21.2;14.4
74430;PMS7003;62863;52.062;23.764;2024-02-21T18:14:27;20.8;17.6;11.8
74430;PMS7003;62863;52.062;23.764;2024-02-21T18:19:51;21.6;19;12.8
74430;PMS7003;62863;52.062;23.764;2024-02-21T18:24:19;22.4;18.4;13
74430;PMS7003;62863;52.062;23.764;2024-02-21T18:30:01;23.2;20;14.2
74430;PMS7003;62863;52.062;23.764;2024-02-21T18:34:35;26.6;20.2;14.2
74430;PMS7003;62863;52.062;23.764;2024-02-21T18:40:01;23.4;18.8;14.4
74430;PMS7003;62863;52.062;23.764;2024-02-21T18:44:35;25;19.8;13.5
74430;PMS7003;62863;52.062;23.764;2024-02-21T18:49:21;24;19;12
74430;PMS7003;62863;52.062;23.764;2024-02-21T18:54:51;23;19;12.8
74430;PMS7003;62863;52.062;23.764;2024-02-21T18:59:45;23;18.8;12.8
74430;PMS7003;62863;52.062;23.764;2024-02-21T19:04:59;22.2;17.8;12
74430;PMS7003;62863;52.062;23.764;2024-02-21T19:09:51;22.4;19;13.4
74430;PMS7003;62863;52.062;23.764;2024-02-21T19:14:49;21.6;17.2;12.4
74430;PMS7003;62863;52.062;23.764;2024-02-21T19:19:57;22.2;19.8;13.8
74430;PMS7003;62863;52.062;23.764;2024-02-21T19:25:03;25.4;21.2;15.4
74430;PMS7003;62863;52.062;23.764;2024-02-21T19:29:51;25.4;21.2;15.4
74430;PMS7003;62863;52.062;23.764;2024-02-21T19:34:31;24.2;20.2;14.2
74430;PMS7003;62863;52.062;23.764;2024-02-21T19:39:19;24.4;19;13.4
74430;PMS7003;62863;52.062;23.764;2024-02-21T19:44:27;24.7;21.7;13.7
74430;PMS7003;62863;52.062;23.764;2024-02-21T19:49:19;28.2;24.2;16.2
74430;PMS7003;62863;52.062;23.764;2024-02-21T19:54:19;23.5;20.8;14.3
74430;PMS7003;62863;52.062;23.764;2024-02-21T19:59:35;23.8;20.8;14.6
74430;PMS7003;62863;52.062;23.764;2024-02-21T20:04:45;23;20.3;14.3
74430;PMS7003;62863;52.062;23.764;2024-02-21T20:09:35;26.5;22;14.8
74430;PMS7003;62863;52.062;23.764;2024-02-21T20:14:59;30;23.8;14.6
74430;PMS7003;62863;52.062;23.764;2024-02-21T20:19:51;25.4;22.4;15.4
74430;PMS7003;62863;52.062;23.764;2024-02-21T20:24:45;26.4;22.6;15.6
74430;PMS7003;62863;52.062;23.764;2024-02-21T20:29:19;28.5;23;16.3
74430;PMS7003;62863;52.062;23.764;2024-02-21T20:34:37;28;23.2;15.2
74430;PMS7003;62863;52.062;23.764;2024-02-21T20:39:21;28.3;24.5;16.3
74430;PMS7003;62863;52.062;23.764;2024-02-21T20:44:21;28.8;25.6;17.6
74430;PMS7003;62863;52.062;23.764;2024-02-21T20:49:19;30.4;26.2;17.4
74430;PMS7003;62863;52.062;23.764;2024-02-21T20:54:51;30.6;26.6;17
74430;PMS7003;62863;52.062;23.764;2024-02-21T21:00:01;28.8;25.8;17.6
74430;PMS7003;62863;52.062;23.764;2024-02-21T21:04:39;30.4;27.2;17.8
74430;PMS7003;62863;52.062;23.764;2024-02-21T21:10:01;34.5;30;20.5
74430;PMS7003;62863;52.062;23.764;2024-02-21T21:14:25;30.8;26.6;17.6
74430;PMS7003;62863;52.062;23.764;2024-02-21T21:19:19;32.8;28;18
74430;PMS7003;62863;52.062;23.764;2024-02-21T21:24:33;33.6;30;18.4
74430;PMS7003;62863;52.062;23.764;2024-02-21T21:29:19;36;28.2;19.4
74430;PMS7003;62863;52.062;23.764;2024-02-21T21:34:43;32.4;28.6;19.4
74430;PMS7003;62863;52.062;23.764;2024-02-21T21:39:43;32.8;28.6;18.4
74430;PMS7003;62863;52.062;23.764;2024-02-21T21:44:27;32;27.2;19.2
74430;PMS7003;62863;52.062;23.764;2024-02-21T21:50:01;41;31.2;21.8
74430;PMS7003;62863;52.062;23.764;2024-02-21T21:54:41;33.4;28.4;20.6
74430;PMS7003;62863;52.062;23.764;2024-02-21T21:59:43;32.6;29;20
74430;PMS7003;62863;52.062;23.764;2024-02-21T22:04:33;34.2;31;20.8
74430;PMS7003;62863;52.062;23.764;2024-02-21T22:09:35;33;29.5;19.8
74430;PMS7003;62863;52.062;23.764;2024-02-21T22:14:49;36.8;31.2;20
74430;PMS7003;62863;52.062;23.764;2024-02-21T22:19:19;38.6;32.8;19.8
74430;PMS7003;62863;52.062;23.764;2024-02-21T22:24:39;36.2;30.6;20.6
74430;PMS7003;62863;52.062;23.764;2024-02-21T22:29:52;35;31.8;21
74430;PMS7003;62863;52.062;23.764;2024-02-21T22:35:01;38.4;33.4;22
74430;PMS7003;62863;52.062;23.764;2024-02-21T22:39:19;33.4;30.6;20.6
74430;PMS7003;62863;52.062;23.764;2024-02-21T22:44:51;43.2;35.4;21.6
74430;PMS7003;62863;52.062;23.764;2024-02-21T22:49:45;37.6;31;21
74430;PMS7003;62863;52.062;23.764;2024-02-21T22:54:51;34.6;30.8;19.8
74430;PMS7003;62863;52.062;23.764;2024-02-21T22:59:27;37.4;32;20.6
74430;PMS7003;62863;52.062;23.764;2024-02-21T23:04:19;38.4;33.4;21
74430;PMS7003;62863;52.062;23.764;2024-02-21T23:09:33;34.3;30.5;20.5
74430;PMS7003;62863;52.062;23.764;2024-02-21T23:15:03;33.2;29.2;20.2
74430;PMS7003;62863;52.062;23.764;2024-02-21T23:19:51;33.2;29.2;20.2
74430;PMS7003;62863;52.062;23.764;2024-02-21T23:24:53;35.8;31;21
74430;PMS7003;62863;52.062;23.764;2024-02-21T23:30:01;38.4;30.4;20.6
74430;PMS7003;62863;52.062;23.764;2024-02-21T23:34:27;35.8;31.4;21
74430;PMS7003;62863;52.062;23.764;2024-02-21T23:40:01;37;29.4;19.2
74430;PMS7003;62863;52.062;23.764;2024-02-21T23:45:03;36.8;31;21
74430;PMS7003;62863;52.062;23.764;2024-02-21T23:49:43;36.8;31;21
74430;PMS7003;62863;52.062;23.764;2024-02-21T23:54:29;34.8;29.2;18.6
74430;PMS7003;62863;52.062;23.764;2024-02-21T23:59:37;35.6;31.6;20.6
